Terminal Aerodrome Forecast
Issued by NWS

Current Version | Previous Version | Text Only | Print | Product List | Glossary On
Versions: 1 2 3 4 5 6 7 8 9 10 11 12 13 14 15 16 17 18 19 20 21 22 23 24
000
FTUS44 KOUN 031153
TAFPNC
TAF
KPNC 031153Z 0312/0412 03003KT P6SM -RA OVC050
     FM031600 06006KT 6SM -RA OVC035
     FM032100 07007KT 5SM -RADZ OVC010
     FM040300 34003KT 3SM -DZ BR OVC006=

USA.gov is the U.S. government's official web portal to all federal, state and local government web resources and services.